Time;durP1;ratioP1;P1;durP2;ratioP2;P2;SDS_P1;SDS_P2;PMS_P1;PMS_P2;Temp;Humidity;BMP_temperature;BMP_pressure;BME280_temperature;BME280_humidity;BME280_pressure;Samples;Min_cycle;Max_cycle;Signal;HPM_P1;HPM_P2
2023/07/03 00:00:19;;;;;;;34.03;17.20;;;15.20;99.90;;;;;;5152182;27;20354;-67
2023/07/03 00:02:51;;;;;;;27.93;14.50;;;15.20;99.90;;;;;;5132534;27;20178;-66
2023/07/03 00:05:17;;;;;;;35.73;14.33;;;15.20;99.90;;;;;;5151742;27;20666;-67
2023/07/03 00:07:42;;;;;;;35.90;14.87;;;15.20;99.90;;;;;;5151670;27;20434;-66
2023/07/03 00:10:09;;;;;;;27.27;12.60;;;15.10;99.90;;;;;;5151471;27;20458;-67
2023/07/03 00:12:34;;;;;;;22.80;12.90;;;15.10;99.90;;;;;;5151413;27;20213;-67
2023/07/03 00:15:00;;;;;;;30.80;14.07;;;15.20;99.90;;;;;;5151138;27;20441;-67
2023/07/03 00:17:26;;;;;;;32.87;13.90;;;15.20;99.90;;;;;;5150800;27;20922;-67
2023/07/03 00:19:52;;;;;;;37.53;14.77;;;15.10;99.90;;;;;;5150780;27;20414;-67
2023/07/03 00:22:17;;;;;;;29.10;13.17;;;15.00;99.90;;;;;;5150978;27;20281;-67
2023/07/03 00:24:43;;;;;;;27.80;15.00;;;15.20;99.90;;;;;;5131976;27;20223;-67
2023/07/03 00:27:09;;;;;;;30.40;14.30;;;15.20;99.90;;;;;;5150383;27;20728;-68
2023/07/03 00:29:34;;;;;;;35.23;13.67;;;15.20;99.90;;;;;;5150674;27;20960;-67
2023/07/03 00:32:01;;;;;;;27.00;13.80;;;15.20;99.90;;;;;;5150632;27;20184;-67
2023/07/03 00:34:27;;;;;;;34.50;14.40;;;15.20;99.90;;;;;;5150703;27;20551;-67
2023/07/03 00:36:53;;;;;;;30.73;14.97;;;15.30;99.90;;;;;;5150332;27;20425;-67
2023/07/03 00:39:19;;;;;;;28.67;14.33;;;15.30;99.90;;;;;;5150368;27;20463;-67
2023/07/03 00:41:45;;;;;;;26.20;13.37;;;15.40;99.90;;;;;;5150346;27;20434;-67
2023/07/03 00:44:13;;;;;;;28.10;13.17;;;15.30;99.90;;;;;;5150224;27;20228;-67
2023/07/03 00:46:40;;;;;;;39.17;14.40;;;15.20;99.90;;;;;;5150121;27;20746;-67
2023/07/03 00:49:07;;;;;;;33.63;14.57;;;15.20;99.90;;;;;;5150304;27;20907;-67
2023/07/03 00:51:33;;;;;;;35.27;15.13;;;15.00;99.90;;;;;;5131421;27;20817;-67
2023/07/03 00:53:58;;;;;;;30.83;14.50;;;15.00;99.90;;;;;;5150443;27;20505;-67
2023/07/03 00:56:24;;;;;;;24.60;12.50;;;15.00;99.90;;;;;;5150860;27;20654;-67
2023/07/03 00:58:49;;;;;;;29.57;13.23;;;15.00;99.90;;;;;;5114971;27;20181;-67
2023/07/03 01:01:37;;;;;;;40.07;15.00;;;14.90;99.90;;;;;;5149871;27;20637;-67
2023/07/03 01:04:34;;;;;;;31.93;13.77;;;15.00;99.90;;;;;;5150171;27;20228;-67
2023/07/03 01:07:07;;;;;;;27.30;13.73;;;15.10;99.90;;;;;;5120484;27;20434;-66
2023/07/03 01:09:59;;;;;;;27.03;13.63;;;15.00;99.90;;;;;;5149793;27;20402;-67
2023/07/03 01:12:28;;;;;;;26.00;14.57;;;15.00;99.90;;;;;;5121702;27;20422;-67
2023/07/03 01:14:57;;;;;;;29.40;12.80;;;15.00;99.90;;;;;;5131149;27;20418;-66
2023/07/03 01:17:26;;;;;;;29.03;13.30;;;14.90;99.90;;;;;;5150198;27;20485;-66
2023/07/03 01:19:53;;;;;;;28.40;14.17;;;14.90;99.90;;;;;;5149905;27;20957;-66
2023/07/03 01:22:30;;;;;;;25.97;12.40;;;14.80;99.90;;;;;;5131210;27;20441;-66
2023/07/03 01:25:03;;;;;;;36.53;13.97;;;14.90;99.90;;;;;;5150007;27;20462;-67
2023/07/03 01:27:32;;;;;;;25.23;12.70;;;14.80;99.90;;;;;;5149739;27;20441;-67
2023/07/03 01:30:00;;;;;;;33.93;12.83;;;14.90;99.90;;;;;;5149723;27;21101;-67
2023/07/03 01:32:29;;;;;;;26.73;12.60;;;15.00;99.90;;;;;;5149640;27;20406;-67
2023/07/03 01:34:56;;;;;;;24.63;13.00;;;15.10;99.90;;;;;;5130768;27;20488;-67
2023/07/03 01:37:27;;;;;;;25.10;13.03;;;15.10;99.90;;;;;;5130851;27;20410;-67
2023/07/03 01:39:54;;;;;;;21.33;12.40;;;15.20;99.90;;;;;;5149802;27;20516;-67
2023/07/03 01:42:25;;;;;;;31.17;13.33;;;15.20;99.90;;;;;;5149624;27;20418;-67
2023/07/03 01:44:51;;;;;;;29.80;12.77;;;15.20;99.90;;;;;;5131138;27;20518;-66
2023/07/03 01:47:17;;;;;;;28.00;12.40;;;15.10;99.90;;;;;;5130702;27;20422;-67
2023/07/03 01:49:43;;;;;;;32.80;13.20;;;15.00;99.90;;;;;;5149467;27;20246;-66
2023/07/03 01:52:32;;;;;;;29.33;13.50;;;15.00;99.90;;;;;;5149693;27;20907;-67
2023/07/03 01:55:28;;;;;;;25.33;12.77;;;14.90;99.90;;;;;;5149580;27;20181;-67
2023/07/03 01:58:04;;;;;;;23.80;12.00;;;15.00;99.90;;;;;;5134196;27;20830;-66
2023/07/03 02:00:51;;;;;;;31.13;12.97;;;14.90;99.90;;;;;;5149417;27;20449;-67
2023/07/03 02:03:31;;;;;;;26.27;11.60;;;14.90;99.90;;;;;;5130738;27;20832;-66
2023/07/03 02:06:00;;;;;;;26.93;12.83;;;15.10;99.90;;;;;;5149455;27;20419;-67
2023/07/03 02:08:27;;;;;;;24.10;11.03;;;15.20;99.90;;;;;;5149275;27;20442;-67
2023/07/03 02:10:54;;;;;;;31.27;12.37;;;15.40;99.90;;;;;;5149371;27;20489;-66
2023/07/03 02:13:20;;;;;;;22.57;11.40;;;15.50;99.90;;;;;;5149394;27;20984;-66
2023/07/03 02:15:45;;;;;;;28.33;11.73;;;15.60;99.90;;;;;;5130694;27;20419;-67
2023/07/03 02:18:13;;;;;;;28.90;11.20;;;15.70;99.90;;;;;;5149416;27;20186;-67
2023/07/03 02:20:38;;;;;;;22.00;11.60;;;15.70;99.90;;;;;;5149163;27;20672;-67
2023/07/03 02:23:04;;;;;;;27.60;11.43;;;15.80;99.90;;;;;;5149331;27;20467;-65
2023/07/03 02:25:31;;;;;;;31.97;13.10;;;15.80;99.90;;;;;;5151247;27;20654;-67
2023/07/03 02:27:56;;;;;;;25.73;11.17;;;15.80;99.90;;;;;;5153134;27;20244;-67
2023/07/03 02:30:22;;;;;;;25.33;12.33;;;15.90;99.90;;;;;;5152982;27;20435;-67
2023/07/03 02:32:48;;;;;;;20.73;11.03;;;16.10;99.90;;;;;;5153144;27;20689;-67
2023/07/03 02:35:13;;;;;;;28.30;12.60;;;16.20;99.90;;;;;;5153033;27;20200;-67
2023/07/03 02:37:39;;;;;;;36.27;12.43;;;16.20;99.90;;;;;;5153097;27;20235;-67
2023/07/03 02:40:08;;;;;;;27.07;10.70;;;16.30;99.90;;;;;;5153091;27;20198;-67
2023/07/03 02:42:34;;;;;;;21.63;10.40;;;16.30;99.90;;;;;;5153037;27;20724;-66
2023/07/03 02:45:00;;;;;;;31.20;12.00;;;16.30;99.90;;;;;;5152890;27;20486;-67
2023/07/03 02:47:25;;;;;;;18.80;11.00;;;16.30;99.90;;;;;;5153059;27;20180;-67
2023/07/03 02:49:51;;;;;;;30.30;11.67;;;16.30;99.90;;;;;;5134250;27;20180;-67
2023/07/03 02:52:17;;;;;;;31.87;11.37;;;16.30;99.90;;;;;;5153091;27;20178;-67
2023/07/03 02:54:42;;;;;;;26.07;12.43;;;16.30;99.90;;;;;;5117366;27;20419;-66
2023/07/03 02:57:08;;;;;;;30.63;11.90;;;16.50;99.90;;;;;;5153218;27;20235;-67
2023/07/03 02:59:34;;;;;;;32.17;12.27;;;16.50;99.90;;;;;;5153311;27;20684;-67
2023/07/03 03:01:59;;;;;;;24.27;11.80;;;16.50;99.90;;;;;;5153238;27;20254;-67
2023/07/03 03:04:25;;;;;;;20.97;12.07;;;16.50;99.90;;;;;;5153160;27;20202;-66
2023/07/03 03:06:51;;;;;;;28.77;11.93;;;16.60;99.90;;;;;;5117558;27;20177;-66
2023/07/03 03:09:16;;;;;;;25.17;10.50;;;16.70;99.90;;;;;;5153220;27;20577;-66
2023/07/03 03:11:42;;;;;;;22.10;10.03;;;16.70;99.90;;;;;;5153239;27;20249;-67
2023/07/03 03:14:07;;;;;;;26.97;11.37;;;16.70;99.90;;;;;;5134498;27;20659;-67
2023/07/03 03:16:33;;;;;;;32.37;12.07;;;16.70;99.90;;;;;;5153017;27;20192;-67
2023/07/03 03:18:59;;;;;;;23.77;10.73;;;16.80;99.90;;;;;;5152935;27;20265;-67
2023/07/03 03:21:25;;;;;;;27.20;11.23;;;16.80;99.90;;;;;;5152756;27;21144;-67
2023/07/03 03:23:51;;;;;;;23.27;11.20;;;16.70;99.90;;;;;;5152820;27;20574;-67
2023/07/03 03:26:16;;;;;;;27.13;10.80;;;16.80;99.90;;;;;;5152420;27;20174;-67
2023/07/03 03:28:42;;;;;;;31.43;12.47;;;16.90;99.90;;;;;;5153166;27;20236;-67
2023/07/03 03:31:08;;;;;;;24.37;10.43;;;16.90;99.90;;;;;;5152588;27;20195;-66
2023/07/03 03:33:33;;;;;;;25.27;11.30;;;17.00;99.90;;;;;;5133724;27;20615;-68
2023/07/03 03:35:59;;;;;;;20.90;10.23;;;17.00;99.90;;;;;;5151611;27;20519;-67
2023/07/03 03:38:24;;;;;;;33.27;11.37;;;17.20;99.90;;;;;;5151971;27;20187;-67
2023/07/03 03:40:59;;;;;;;25.13;11.80;;;17.20;99.90;;;;;;5133523;27;20253;-67
2023/07/03 03:43:25;;;;;;;24.70;11.30;;;17.30;99.90;;;;;;5151639;27;20228;-66
2023/07/03 03:45:58;;;;;;;24.43;10.43;;;17.30;99.90;;;;;;5151605;27;20918;-67
2023/07/03 03:48:25;;;;;;;20.57;10.00;;;17.30;99.90;;;;;;5151670;27;20707;-66
2023/07/03 03:50:50;;;;;;;21.13;10.53;;;17.40;99.90;;;;;;5151477;27;20435;-67
2023/07/03 03:53:16;;;;;;;28.60;11.80;;;17.40;99.90;;;;;;5151513;27;20415;-67
2023/07/03 03:55:43;;;;;;;24.03;11.27;;;17.50;99.90;;;;;;5151297;27;20187;-67
2023/07/03 03:58:10;;;;;;;22.93;10.50;;;17.50;99.90;;;;;;5132786;27;20417;-67
2023/07/03 04:00:36;;;;;;;25.80;9.63;;;17.50;99.90;;;;;;5151539;27;20429;-67
2023/07/03 04:03:01;;;;;;;26.57;11.13;;;17.50;99.90;;;;;;5151987;27;21092;-66
2023/07/03 04:05:27;;;;;;;21.70;9.77;;;17.60;99.90;;;;;;5151961;27;20419;-67
2023/07/03 04:07:52;;;;;;;22.80;10.80;;;17.60;99.90;;;;;;5152203;27;20172;-67
2023/07/03 04:10:18;;;;;;;22.33;10.50;;;17.60;99.90;;;;;;5152134;27;20208;-66
2023/07/03 04:12:44;;;;;;;23.77;10.50;;;17.60;99.90;;;;;;5151831;27;20190;-66
2023/07/03 04:15:09;;;;;;;21.33;10.23;;;17.70;99.90;;;;;;5116220;27;20772;-67
2023/07/03 04:17:35;;;;;;;19.53;9.63;;;17.70;99.90;;;;;;5151921;27;20217;-66
2023/07/03 04:20:01;;;;;;;20.80;10.47;;;17.70;99.90;;;;;;5151402;27;20207;-67
2023/07/03 04:22:26;;;;;;;21.17;9.93;;;17.70;99.90;;;;;;5132615;27;20193;-67
2023/07/03 04:24:53;;;;;;;30.23;11.10;;;17.70;99.90;;;;;;5151048;27;20209;-67
2023/07/03 04:27:19;;;;;;;24.43;10.03;;;17.70;99.90;;;;;;5151107;27;20200;-67
2023/07/03 04:29:45;;;;;;;22.80;10.20;;;17.60;99.90;;;;;;5151111;27;20787;-67
2023/07/03 04:32:10;;;;;;;23.07;10.70;;;17.60;99.90;;;;;;5150664;27;20490;-67
2023/07/03 04:34:36;;;;;;;24.83;10.23;;;17.60;99.90;;;;;;5132066;27;20184;-67
2023/07/03 04:37:03;;;;;;;26.07;11.27;;;17.60;99.90;;;;;;5150673;27;20211;-67
2023/07/03 04:39:29;;;;;;;23.60;10.77;;;17.60;99.90;;;;;;5150579;27;20176;-67
2023/07/03 04:41:59;;;;;;;19.60;10.23;;;17.60;99.90;;;;;;5150438;27;20427;-67
2023/07/03 04:44:28;;;;;;;23.17;10.50;;;17.60;99.90;;;;;;5150590;27;20468;-66
2023/07/03 04:46:57;;;;;;;24.77;10.90;;;17.60;99.90;;;;;;5149477;27;20580;-68
2023/07/03 04:49:26;;;;;;;14.63;9.27;;;17.70;99.90;;;;;;5148411;27;20421;-67
2023/07/03 04:51:52;;;;;;;20.53;10.40;;;17.60;99.90;;;;;;5148690;27;20454;-66
2023/07/03 04:54:19;;;;;;;16.13;9.50;;;17.60;99.90;;;;;;5149049;27;20438;-66
2023/07/03 04:56:46;;;;;;;21.20;10.00;;;17.60;99.90;;;;;;5148781;27;20413;-66
2023/07/03 04:59:12;;;;;;;20.40;9.47;;;17.70;99.90;;;;;;5148711;27;20896;-68
2023/07/03 05:01:39;;;;;;;22.30;9.57;;;17.80;99.90;;;;;;5148482;27;20432;-67
2023/07/03 05:04:05;;;;;;;18.37;9.13;;;17.80;99.90;;;;;;5148295;27;20239;-67
2023/07/03 05:06:31;;;;;;;22.90;9.97;;;17.70;99.90;;;;;;5129862;27;20425;-67
2023/07/03 05:08:56;;;;;;;18.33;9.73;;;17.80;99.90;;;;;;5148472;27;20852;-67
2023/07/03 05:11:22;;;;;;;20.43;9.10;;;17.80;99.90;;;;;;5148582;27;20211;-66
2023/07/03 05:13:47;;;;;;;19.00;8.80;;;17.80;99.90;;;;;;5148405;27;20180;-66
2023/07/03 05:16:14;;;;;;;20.70;9.40;;;17.90;99.90;;;;;;5129730;27;20198;-67
2023/07/03 05:18:39;;;;;;;24.90;9.50;;;17.90;99.90;;;;;;5148645;27;20195;-67
2023/07/03 05:21:06;;;;;;;20.13;9.60;;;18.00;99.90;;;;;;5148229;27;20461;-67
2023/07/03 05:23:32;;;;;;;22.80;8.80;;;18.00;99.90;;;;;;5129978;27;20220;-67
2023/07/03 05:25:57;;;;;;;23.03;9.90;;;18.00;99.90;;;;;;5148223;27;20444;-66
2023/07/03 05:28:24;;;;;;;16.07;8.97;;;18.00;99.90;;;;;;5148046;27;20639;-67
2023/07/03 05:30:57;;;;;;;22.60;9.80;;;17.90;99.90;;;;;;5148161;27;20512;-67
2023/07/03 05:33:24;;;;;;;18.20;9.63;;;18.00;99.90;;;;;;5148500;27;20416;-67
2023/07/03 05:35:49;;;;;;;18.00;8.83;;;18.10;99.90;;;;;;5148307;27;20860;-67
2023/07/03 05:38:15;;;;;;;21.70;10.03;;;18.00;99.90;;;;;;5129426;27;20416;-67
2023/07/03 05:40:41;;;;;;;19.10;9.17;;;18.00;99.90;;;;;;5148265;27;20441;-67
2023/07/03 05:43:06;;;;;;;21.67;9.40;;;18.10;99.90;;;;;;5148154;27;20596;-67
2023/07/03 05:45:32;;;;;;;19.43;7.77;;;18.10;99.90;;;;;;5148395;27;20235;-67
2023/07/03 05:47:57;;;;;;;24.40;10.20;;;18.20;99.90;;;;;;5148177;27;20181;-67
2023/07/03 05:50:23;;;;;;;19.73;9.27;;;18.20;99.90;;;;;;5129039;27;20203;-67
2023/07/03 05:52:49;;;;;;;22.20;8.90;;;18.30;99.90;;;;;;5129737;27;20251;-66
2023/07/03 05:55:14;;;;;;;21.63;9.70;;;18.30;99.90;;;;;;5148064;27;20259;-67
2023/07/03 05:57:40;;;;;;;17.40;9.07;;;18.30;99.90;;;;;;5148311;27;20258;-67
2023/07/03 06:00:13;;;;;;;20.50;8.87;;;18.30;99.90;;;;;;5149213;27;20274;-67
2023/07/03 06:02:43;;;;;;;21.77;8.57;;;18.30;99.90;;;;;;5152417;27;20420;-67
2023/07/03 06:05:11;;;;;;;18.30;7.80;;;18.40;99.90;;;;;;5151886;27;20467;-67
2023/07/03 06:07:37;;;;;;;17.50;8.97;;;18.40;99.90;;;;;;5151812;27;20412;-67
2023/07/03 06:10:04;;;;;;;26.80;9.80;;;18.40;99.90;;;;;;5152212;27;20433;-67
2023/07/03 06:12:30;;;;;;;18.27;8.97;;;18.50;99.90;;;;;;5151840;27;20410;-67
2023/07/03 06:15:00;;;;;;;20.93;9.47;;;18.60;99.90;;;;;;5151828;27;20409;-67
2023/07/03 06:17:27;;;;;;;21.73;8.50;;;18.60;99.90;;;;;;5151661;27;20414;-67
2023/07/03 06:19:53;;;;;;;17.10;9.07;;;18.30;99.90;;;;;;5151696;27;20427;-67
2023/07/03 06:22:19;;;;;;;23.67;8.73;;;18.60;99.90;;;;;;5133404;27;20430;-67
2023/07/03 06:24:45;;;;;;;22.63;7.67;;;18.70;99.90;;;;;;5151506;27;20463;-67
2023/07/03 06:27:12;;;;;;;13.00;8.07;;;18.80;99.90;;;;;;5151594;27;21254;-67
2023/07/03 06:29:38;;;;;;;17.30;7.73;;;18.90;99.90;;;;;;5151450;27;20413;-67
2023/07/03 06:32:04;;;;;;;16.60;8.33;;;18.90;99.90;;;;;;5151540;27;20419;-66
2023/07/03 06:34:30;;;;;;;19.43;8.33;;;19.00;99.90;;;;;;5151356;27;20985;-66
2023/07/03 06:36:56;;;;;;;16.33;7.43;;;19.00;99.90;;;;;;5151690;27;20434;-65
2023/07/03 06:39:22;;;;;;;16.03;7.30;;;19.10;99.90;;;;;;5151512;27;20234;-67
2023/07/03 06:41:48;;;;;;;20.03;8.50;;;19.20;99.90;;;;;;5151508;27;20442;-67
2023/07/03 06:44:17;;;;;;;16.23;8.03;;;19.20;99.90;;;;;;5151196;27;20460;-66
2023/07/03 06:46:43;;;;;;;16.13;7.70;;;19.30;99.90;;;;;;5151395;27;21053;-66
2023/07/03 06:49:09;;;;;;;22.50;9.07;;;19.40;99.90;;;;;;5132835;27;20427;-66
2023/07/03 06:51:36;;;;;;;15.13;8.37;;;19.50;99.90;;;;;;5151168;27;20481;-66
2023/07/03 06:54:02;;;;;;;16.93;8.30;;;19.60;99.90;;;;;;5151108;27;20473;-66
2023/07/03 06:56:29;;;;;;;24.07;8.77;;;19.70;99.90;;;;;;5132547;27;20930;-67
2023/07/03 06:58:54;;;;;;;20.17;8.60;;;19.70;99.90;;;;;;5150875;27;20925;-66
2023/07/03 07:01:22;;;;;;;16.90;8.57;;;19.70;99.10;;;;;;5150843;27;20441;-66
2023/07/03 07:03:48;;;;;;;17.87;8.20;;;19.70;99.50;;;;;;5131817;27;20245;-67
2023/07/03 07:06:22;;;;;;;18.20;8.83;;;19.80;98.80;;;;;;5151019;27;20409;-67
2023/07/03 07:08:48;;;;;;;21.33;7.90;;;19.80;99.10;;;;;;5151232;27;20438;-67
2023/07/03 07:11:19;;;;;;;16.53;7.57;;;19.70;97.50;;;;;;5150340;27;20537;-67
2023/07/03 07:13:47;;;;;;;20.63;9.07;;;19.80;99.10;;;;;;5150652;27;20933;-66
2023/07/03 07:16:20;;;;;;;24.07;8.70;;;19.80;97.50;;;;;;5150483;27;20477;-66
2023/07/03 07:18:47;;;;;;;19.90;9.03;;;19.80;98.30;;;;;;5150825;27;20423;-67
2023/07/03 07:21:13;;;;;;;15.93;7.80;;;19.80;97.60;;;;;;5150626;27;20447;-67
2023/07/03 07:23:39;;;;;;;26.07;8.83;;;19.80;97.30;;;;;;5150666;27;20465;-67
2023/07/03 07:26:04;;;;;;;16.50;8.13;;;19.80;96.40;;;;;;5150407;27;20418;-67
2023/07/03 07:28:30;;;;;;;22.53;7.97;;;19.80;96.80;;;;;;5150605;27;20191;-67
2023/07/03 07:30:56;;;;;;;16.47;7.60;;;19.90;97.40;;;;;;5150496;27;20692;-67
2023/07/03 07:33:22;;;;;;;21.57;8.43;;;20.00;97.40;;;;;;5150223;27;20794;-66
2023/07/03 07:35:49;;;;;;;18.03;8.10;;;20.10;98.50;;;;;;5150480;27;20259;-66
2023/07/03 07:38:14;;;;;;;21.83;8.27;;;20.30;97.90;;;;;;5150314;27;20798;-66
2023/07/03 07:40:40;;;;;;;15.77;8.40;;;20.30;97.00;;;;;;5150371;27;20437;-67
2023/07/03 07:43:07;;;;;;;16.53;7.77;;;20.40;97.70;;;;;;5131567;27;20185;-67
2023/07/03 07:45:32;;;;;;;16.40;7.80;;;20.40;96.00;;;;;;5150253;27;20179;-67
2023/07/03 07:47:58;;;;;;;21.70;8.87;;;20.50;96.20;;;;;;5131587;27;20429;-67
2023/07/03 07:50:24;;;;;;;17.33;7.50;;;20.60;96.10;;;;;;5149923;27;20485;-67
2023/07/03 07:52:50;;;;;;;19.23;8.73;;;20.60;95.90;;;;;;5150188;27;20186;-67
2023/07/03 07:55:17;;;;;;;21.80;8.10;;;20.70;97.10;;;;;;5149764;27;20181;-67
2023/07/03 07:57:42;;;;;;;21.53;8.73;;;20.80;96.80;;;;;;5149862;27;20432;-67
2023/07/03 08:00:08;;;;;;;18.33;8.03;;;20.80;99.90;;;;;;5149751;27;20434;-66
2023/07/03 08:02:34;;;;;;;25.60;8.63;;;20.80;96.50;;;;;;5150320;27;20195;-66
2023/07/03 08:05:00;;;;;;;21.00;8.43;;;20.90;96.30;;;;;;5150239;27;20465;-66
2023/07/03 08:07:26;;;;;;;16.40;7.60;;;21.00;97.10;;;;;;5150596;27;20992;-66
2023/07/03 08:09:51;;;;;;;22.47;8.07;;;21.00;96.60;;;;;;5150418;27;20721;-66
2023/07/03 08:12:17;;;;;;;12.83;7.07;;;20.90;97.00;;;;;;5150476;27;20185;-67
2023/07/03 08:14:42;;;;;;;15.90;8.37;;;20.70;95.50;;;;;;5150375;27;20306;-66
2023/07/03 08:17:08;;;;;;;21.13;8.73;;;20.60;95.50;;;;;;5150299;27;20188;-66
2023/07/03 08:19:34;;;;;;;16.73;7.63;;;20.50;95.50;;;;;;5150486;27;20189;-67
2023/07/03 08:21:59;;;;;;;15.50;7.33;;;20.50;95.60;;;;;;5150013;27;20722;-66
2023/07/03 08:24:25;;;;;;;15.00;7.80;;;20.50;96.50;;;;;;5149734;27;20199;-65
2023/07/03 08:26:52;;;;;;;24.40;8.83;;;20.40;95.70;;;;;;5150124;27;20505;-65
2023/07/03 08:29:17;;;;;;;20.80;8.67;;;20.40;96.40;;;;;;5131861;27;20168;-66
2023/07/03 08:31:43;;;;;;;16.57;8.00;;;20.40;96.90;;;;;;5150087;27;20437;-66
2023/07/03 08:34:10;;;;;;;19.73;8.30;;;20.50;94.90;;;;;;5150208;27;20180;-66
2023/07/03 08:36:35;;;;;;;23.60;8.90;;;20.70;94.90;;;;;;5150346;27;20172;-66
2023/07/03 08:39:02;;;;;;;22.87;7.90;;;20.60;95.60;;;;;;5150265;27;20473;-65
2023/07/03 08:41:27;;;;;;;16.00;7.73;;;20.60;95.20;;;;;;5150086;27;20248;-67
2023/07/03 08:43:56;;;;;;;19.50;8.37;;;20.70;95.30;;;;;;5150071;27;20457;-66
2023/07/03 08:46:28;;;;;;;20.83;9.30;;;20.80;95.70;;;;;;5150159;27;20587;-67
2023/07/03 08:48:57;;;;;;;17.33;8.60;;;21.00;95.40;;;;;;5150551;27;20410;-66
2023/07/03 08:51:28;;;;;;;23.40;8.90;;;21.00;95.70;;;;;;5150426;27;20468;-67
2023/07/03 08:53:59;;;;;;;18.53;8.10;;;21.00;95.60;;;;;;5150721;27;20765;-67
2023/07/03 08:56:30;;;;;;;20.73;8.70;;;21.10;95.40;;;;;;5150726;27;20409;-67
2023/07/03 08:58:56;;;;;;;18.63;8.30;;;21.10;95.40;;;;;;5150575;27;20401;-67
2023/07/03 09:01:33;;;;;;;18.07;8.40;;;21.20;96.10;;;;;;5150478;27;20430;-67
2023/07/03 09:04:17;;;;;;;16.90;7.43;;;21.10;95.00;;;;;;5150481;27;20453;-66
2023/07/03 09:07:01;;;;;;;20.00;8.23;;;21.10;94.70;;;;;;5150452;27;20409;-65
2023/07/03 09:09:29;;;;;;;18.40;8.13;;;21.20;93.40;;;;;;5131566;27;20513;-66
2023/07/03 09:12:09;;;;;;;17.60;7.60;;;21.50;94.70;;;;;;5150076;27;20536;-65
2023/07/03 09:14:43;;;;;;;15.60;7.73;;;21.60;94.10;;;;;;5150102;27;20982;-65
2023/07/03 09:17:11;;;;;;;14.03;7.57;;;21.70;94.70;;;;;;5149853;27;20502;-65
2023/07/03 09:19:42;;;;;;;17.70;7.70;;;22.00;94.10;;;;;;5131074;27;20419;-66
2023/07/03 09:22:16;;;;;;;18.47;8.03;;;22.40;93.90;;;;;;5149560;27;20413;-66
2023/07/03 09:24:44;;;;;;;17.70;7.60;;;22.70;93.60;;;;;;5149763;27;20563;-66
2023/07/03 09:27:16;;;;;;;14.73;7.30;;;22.70;93.40;;;;;;5149548;27;20529;-66
2023/07/03 09:29:43;;;;;;;14.17;7.50;;;22.60;93.40;;;;;;5149876;27;20461;-68
2023/07/03 09:32:12;;;;;;;19.30;8.17;;;22.30;92.30;;;;;;5150019;27;20405;-67
2023/07/03 09:35:19;;;;;;;23.97;8.27;;;22.10;92.00;;;;;;5152237;27;20409;-65
2023/07/03 09:38:14;;;;;;;20.70;7.90;;;22.00;92.00;;;;;;5049917;28;20541;-66
2023/07/03 09:40:42;;;;;;;14.27;7.20;;;22.30;93.40;;;;;;5028282;28;20451;-66
2023/07/03 09:43:25;;;;;;;14.90;7.10;;;22.70;91.60;;;;;;5122490;27;20425;-65
2023/07/03 09:46:01;;;;;;;17.93;8.57;;;23.00;91.30;;;;;;5153862;27;20411;-67
2023/07/03 09:48:30;;;;;;;18.60;8.27;;;23.00;90.90;;;;;;5153861;27;20405;-67
2023/07/03 09:50:56;;;;;;;16.83;6.70;;;22.80;90.50;;;;;;5153688;27;20817;-66
2023/07/03 09:53:26;;;;;;;21.10;7.80;;;22.60;91.60;;;;;;5135535;27;20858;-66
2023/07/03 09:55:54;;;;;;;21.77;7.80;;;22.50;90.70;;;;;;5153757;27;20839;-66
2023/07/03 09:58:23;;;;;;;20.50;6.57;;;22.40;91.20;;;;;;5153713;27;20413;-66
2023/07/03 10:00:58;;;;;;;13.80;6.60;;;22.30;91.20;;;;;;5153697;27;20427;-66
2023/07/03 10:03:26;;;;;;;17.67;7.23;;;22.40;91.50;;;;;;5153888;27;20468;-67
2023/07/03 10:05:53;;;;;;;21.77;7.93;;;22.70;91.40;;;;;;5154059;27;20950;-66
2023/07/03 10:08:26;;;;;;;18.00;8.30;;;23.50;92.40;;;;;;5135218;27;20943;-66
2023/07/03 10:10:54;;;;;;;14.77;7.00;;;24.20;91.30;;;;;;5153763;27;20430;-66
2023/07/03 10:13:26;;;;;;;14.17;6.53;;;24.30;91.30;;;;;;5153806;27;21257;-66
2023/07/03 10:15:54;;;;;;;24.30;7.93;;;24.20;91.10;;;;;;5153725;27;20414;-66
2023/07/03 10:18:29;;;;;;;20.77;7.03;;;23.90;90.60;;;;;;5118654;27;20451;-66
2023/07/03 10:20:55;;;;;;;17.47;7.13;;;23.80;89.90;;;;;;5153395;27;20839;-66
2023/07/03 10:23:25;;;;;;;17.10;7.70;;;23.60;90.20;;;;;;5153152;27;20451;-66
2023/07/03 10:26:21;;;;;;;16.10;6.70;;;23.30;89.50;;;;;;5152922;27;20411;-65
2023/07/03 10:28:59;;;;;;;18.00;6.93;;;23.20;90.00;;;;;;5152918;27;20414;-67
2023/07/03 10:31:50;;;;;;;20.40;8.07;;;23.50;90.40;;;;;;5152585;27;20504;-65
2023/07/03 10:34:38;;;;;;;17.37;6.60;;;23.60;90.40;;;;;;5152419;27;20396;-66
2023/07/03 10:37:07;;;;;;;13.03;6.03;;;23.80;90.90;;;;;;5152404;27;20410;-66
2023/07/03 10:39:54;;;;;;;12.73;6.40;;;23.80;91.10;;;;;;5152028;27;20411;-67
2023/07/03 10:42:42;;;;;;;14.77;6.53;;;23.80;89.40;;;;;;5152074;27;20410;-67
2023/07/03 10:45:14;;;;;;;12.40;6.50;;;24.60;87.00;;;;;;5151616;27;20453;-67
2023/07/03 10:47:57;;;;;;;14.73;5.83;;;25.00;86.80;;;;;;5132944;27;20868;-67
2023/07/03 10:50:45;;;;;;;15.07;6.87;;;24.80;84.00;;;;;;5117877;27;20544;-67
2023/07/03 10:53:45;;;;;;;13.17;6.63;;;24.40;87.30;;;;;;5151587;27;20508;-65
2023/07/03 10:56:23;;;;;;;15.23;6.87;;;23.80;86.40;;;;;;5151633;27;20446;-65
2023/07/03 10:59:10;;;;;;;17.80;6.27;;;23.50;90.10;;;;;;5151268;27;20447;-66
2023/07/03 11:01:48;;;;;;;14.33;5.67;;;23.30;88.60;;;;;;5150883;27;20428;-66
2023/07/03 11:04:24;;;;;;;16.80;5.97;;;23.80;88.90;;;;;;5151014;27;20491;-66
2023/07/03 11:06:57;;;;;;;12.47;6.53;;;24.50;88.50;;;;;;5151736;27;20411;-66
2023/07/03 11:09:44;;;;;;;11.83;5.97;;;25.30;88.40;;;;;;5151514;27;20421;-66
2023/07/03 11:12:21;;;;;;;13.87;5.73;;;24.90;85.60;;;;;;5151556;27;20441;-65
2023/07/03 11:15:12;;;;;;;10.77;5.93;;;24.40;85.80;;;;;;5151574;27;20495;-66
2023/07/03 11:17:57;;;;;;;11.10;4.50;;;24.20;85.60;;;;;;5151315;27;20434;-67
2023/07/03 11:20:35;;;;;;;10.77;5.20;;;24.50;85.80;;;;;;5151199;27;20432;-68
2023/07/03 11:23:18;;;;;;;18.57;5.50;;;25.10;86.00;;;;;;5151486;27;20400;-68
2023/07/03 11:25:51;;;;;;;11.53;5.30;;;24.90;84.70;;;;;;5151346;27;20433;-69
2023/07/03 11:28:23;;;;;;;11.00;4.97;;;24.60;86.10;;;;;;5151206;27;20436;-69
2023/07/03 11:30:50;;;;;;;8.60;4.23;;;24.30;85.50;;;;;;5151193;27;20514;-69
2023/07/03 11:33:16;;;;;;;8.03;4.87;;;24.00;85.70;;;;;;5151307;27;20428;-69
2023/07/03 11:35:56;;;;;;;4.80;3.77;;;23.90;85.60;;;;;;5115465;27;20429;-68
2023/07/03 11:38:22;;;;;;;8.53;3.90;;;24.30;84.80;;;;;;5151181;27;20416;-68
2023/07/03 11:40:54;;;;;;;10.70;4.17;;;24.30;84.00;;;;;;5151491;27;20848;-69
2023/07/03 11:43:32;;;;;;;6.53;3.70;;;24.10;85.40;;;;;;5150959;27;20477;-70
2023/07/03 11:45:57;;;;;;;7.13;3.67;;;24.10;86.60;;;;;;5151100;27;20417;-68
2023/07/03 11:48:26;;;;;;;4.90;2.60;;;24.00;85.10;;;;;;5151117;27;20764;-70
2023/07/03 11:51:01;;;;;;;7.03;2.93;;;24.70;84.80;;;;;;5132018;27;20589;-70
2023/07/03 11:53:44;;;;;;;6.07;2.93;;;24.80;82.80;;;;;;5132881;27;20420;-70
2023/07/03 11:56:35;;;;;;;4.53;3.13;;;24.90;82.70;;;;;;5131894;27;20547;-69
2023/07/03 11:59:06;;;;;;;5.23;2.80;;;24.90;85.30;;;;;;5149449;27;20421;-69
2023/07/03 12:01:32;;;;;;;6.10;3.50;;;24.90;85.40;;;;;;5150386;27;20435;-69
2023/07/03 12:04:00;;;;;;;10.30;4.10;;;24.90;83.80;;;;;;5150090;27;20464;-69
2023/07/03 12:06:38;;;;;;;6.67;3.43;;;24.90;85.90;;;;;;5150462;27;20679;-69
2023/07/03 12:09:19;;;;;;;6.83;3.40;;;24.90;86.40;;;;;;5150344;27;20413;-70
2023/07/03 12:12:00;;;;;;;6.40;3.20;;;24.60;84.90;;;;;;5149909;27;20971;-70
2023/07/03 12:14:52;;;;;;;5.70;3.20;;;24.90;81.30;;;;;;5149814;27;20442;-69
2023/07/03 12:17:31;;;;;;;6.27;2.90;;;25.30;81.00;;;;;;5150212;27;20407;-68
2023/07/03 12:20:07;;;;;;;7.40;3.00;;;25.80;83.10;;;;;;5150277;27;20519;-69
2023/07/03 12:22:40;;;;;;;5.70;3.07;;;26.20;79.40;;;;;;5150093;27;20758;-70
2023/07/03 12:25:21;;;;;;;8.47;2.90;;;26.50;79.80;;;;;;5150012;27;20456;-70
2023/07/03 12:27:49;;;;;;;5.30;3.10;;;26.40;76.70;;;;;;5149736;27;20813;-70
2023/07/03 12:30:24;;;;;;;8.63;2.47;;;26.00;77.50;;;;;;5065166;28;20574;-69
2023/07/03 12:32:51;;;;;;;5.40;3.30;;;26.10;78.10;;;;;;5065159;28;20424;-70
2023/07/03 12:35:23;;;;;;;5.60;2.53;;;26.00;79.40;;;;;;5065034;28;20402;-70
2023/07/03 12:37:54;;;;;;;5.67;3.20;;;26.00;76.90;;;;;;5064858;28;20499;-69
2023/07/03 12:40:21;;;;;;;5.63;2.93;;;26.10;76.40;;;;;;5064972;28;20422;-70
2023/07/03 12:42:47;;;;;;;7.30;2.87;;;25.80;77.00;;;;;;5064773;28;20413;-70
2023/07/03 12:45:26;;;;;;;6.40;3.03;;;25.90;77.00;;;;;;5063523;28;20411;-70